Time;durP1;ratioP1;P1;durP2;ratioP2;P2;SDS_P1;SDS_P2;PMS_P1;PMS_P2;Temp;Humidity;BMP_temperature;BMP_pressure;BME280_temperature;BME280_humidity;BME280_pressure;Samples;Min_cycle;Max_cycle;Signal;HPM_P1;HPM_P2
2022/12/19 00:01:04;;;;;;;70.65;31.02;;;-2.50;99.90;;;;;;4350953;28;10000297;-73
2022/12/19 00:03:30;;;;;;;74.05;32.47;;;-2.40;99.90;;;;;;5054212;28;20036;-73
2022/12/19 00:05:55;;;;;;;77.00;32.47;;;-2.40;99.90;;;;;;5068756;28;22043;-73
2022/12/19 00:08:21;;;;;;;74.45;31.48;;;-2.40;99.90;;;;;;5084196;28;20085;-73
2022/12/19 00:10:55;;;;;;;70.60;31.85;;;-2.40;99.90;;;;;;5078462;28;20109;-73
2022/12/19 00:13:20;;;;;;;73.55;31.27;;;-2.40;99.90;;;;;;5080866;28;20043;-73
2022/12/19 00:15:46;;;;;;;71.75;32.55;;;-2.40;99.90;;;;;;5081973;28;20741;-73
2022/12/19 00:18:11;;;;;;;80.22;34.95;;;-2.30;99.90;;;;;;5078068;28;20119;-73
2022/12/19 00:20:37;;;;;;;70.78;31.67;;;-2.30;99.90;;;;;;5081364;28;20040;-73
2022/12/19 00:23:03;;;;;;;71.60;32.33;;;-2.30;99.90;;;;;;5068862;28;20036;-73
2022/12/19 00:25:28;;;;;;;71.25;31.80;;;-2.30;99.90;;;;;;5082625;28;20118;-73
2022/12/19 00:27:54;;;;;;;69.75;30.80;;;-2.30;99.90;;;;;;5083055;28;20418;-73
2022/12/19 00:30:20;;;;;;;67.47;30.48;;;-2.30;99.90;;;;;;5079575;28;20030;-73
2022/12/19 00:32:46;;;;;;;71.38;30.70;;;-2.30;99.90;;;;;;5082021;28;20482;-73
2022/12/19 00:35:12;;;;;;;74.90;32.05;;;-2.30;99.90;;;;;;5078581;28;20158;-73
2022/12/19 00:37:38;;;;;;;69.32;30.98;;;-2.30;99.90;;;;;;5077338;28;20115;-73
2022/12/19 00:40:04;;;;;;;69.07;30.80;;;-2.30;99.90;;;;;;5058013;28;20388;-73
2022/12/19 00:42:30;;;;;;;67.18;30.63;;;-2.30;99.90;;;;;;5049777;28;20055;-73
2022/12/19 00:44:56;;;;;;;71.03;31.40;;;-2.30;99.90;;;;;;5048168;28;20052;-73
2022/12/19 00:47:21;;;;;;;69.60;30.90;;;-2.30;99.90;;;;;;5055962;28;20059;-73
2022/12/19 00:49:47;;;;;;;71.47;31.33;;;-2.20;99.90;;;;;;5056808;28;20458;-73
2022/12/19 00:52:12;;;;;;;72.25;31.38;;;-2.30;99.90;;;;;;5059826;28;20024;-73
2022/12/19 00:54:38;;;;;;;70.13;31.48;;;-2.20;99.90;;;;;;5058861;28;20784;-73
2022/12/19 00:57:04;;;;;;;65.75;29.42;;;-2.20;99.90;;;;;;5057920;28;20095;-73
2022/12/19 00:59:29;;;;;;;74.00;32.10;;;-2.10;99.90;;;;;;5055812;28;20089;-73
2022/12/19 01:01:55;;;;;;;69.80;31.33;;;-2.10;99.90;;;;;;5043585;28;20051;-73
2022/12/19 01:04:21;;;;;;;68.15;30.98;;;-2.10;99.90;;;;;;5055686;28;20036;-73
2022/12/19 01:06:47;;;;;;;64.47;30.92;;;-2.10;99.90;;;;;;5054211;28;20082;-73
2022/12/19 01:09:12;;;;;;;70.10;31.92;;;-2.10;99.90;;;;;;5058717;28;20047;-73
2022/12/19 01:14:22;;;;;;;69.78;31.45;;;-2.00;99.90;;;;;;5052583;28;20043;-73
2022/12/19 01:16:48;;;;;;;71.65;31.63;;;-2.00;99.90;;;;;;5058519;28;20036;-74
2022/12/19 01:19:14;;;;;;;69.05;32.67;;;-2.00;99.90;;;;;;5056084;28;20123;-73
2022/12/19 01:21:39;;;;;;;69.80;31.40;;;-1.90;99.90;;;;;;5057205;28;20036;-73
2022/12/19 01:24:05;;;;;;;73.78;32.55;;;-1.90;99.90;;;;;;5065924;28;20544;-73
2022/12/19 01:26:31;;;;;;;74.40;32.08;;;-1.80;99.90;;;;;;5083537;28;20552;-73
2022/12/19 01:28:57;;;;;;;70.15;33.03;;;-1.80;99.90;;;;;;5081953;28;20032;-73
2022/12/19 01:31:22;;;;;;;73.60;33.58;;;-1.80;99.90;;;;;;5080316;28;20023;-73
2022/12/19 01:33:48;;;;;;;75.18;33.65;;;-1.80;99.90;;;;;;5079160;28;20082;-72
2022/12/19 01:36:14;;;;;;;80.32;34.42;;;-1.80;99.90;;;;;;5080100;28;20035;-72
2022/12/19 01:38:39;;;;;;;81.60;34.72;;;-1.80;99.90;;;;;;5084818;28;20036;-73
2022/12/19 01:41:05;;;;;;;84.22;36.50;;;-1.80;99.90;;;;;;5081023;28;20043;-72
2022/12/19 01:43:52;;;;;;;90.22;35.55;;;-1.80;99.90;;;;;;5075744;28;20035;-72
2022/12/19 01:46:43;;;;;;;80.60;34.05;;;-1.90;99.90;;;;;;5065718;28;20058;-72
2022/12/19 01:49:17;;;;;;;73.18;31.65;;;-1.80;99.90;;;;;;5056319;28;20115;-73
2022/12/19 01:51:45;;;;;;;70.25;32.70;;;-1.80;99.90;;;;;;5080735;28;20033;-73
2022/12/19 01:54:28;;;;;;;70.68;32.03;;;-1.90;99.90;;;;;;5067012;28;20107;-72
2022/12/19 01:56:56;;;;;;;76.70;33.78;;;-1.80;99.90;;;;;;5054566;28;20144;-72
2022/12/19 01:59:31;;;;;;;72.60;33.17;;;-1.80;99.90;;;;;;5054240;28;20042;-73
2022/12/19 02:02:03;;;;;;;71.25;32.63;;;-1.80;99.90;;;;;;5059135;28;20118;-72
2022/12/19 02:04:30;;;;;;;69.60;32.00;;;-1.80;99.90;;;;;;5056361;28;20074;-72
2022/12/19 02:06:57;;;;;;;69.50;31.27;;;-1.80;99.90;;;;;;5057672;28;20095;-72
2022/12/19 02:09:23;;;;;;;74.85;34.83;;;-1.80;99.90;;;;;;5057596;28;20506;-73
2022/12/19 02:11:48;;;;;;;73.85;33.13;;;-1.80;99.90;;;;;;5060357;28;20195;-73
2022/12/19 02:14:14;;;;;;;71.85;32.45;;;-1.80;99.90;;;;;;5055952;28;20023;-73
2022/12/19 02:17:08;;;;;;;68.53;31.75;;;-1.80;99.90;;;;;;5046206;28;20040;-73
2022/12/19 02:20:20;;;;;;;73.18;31.85;;;-1.80;99.90;;;;;;5048351;28;20039;-73
2022/12/19 02:22:58;;;;;;;73.10;32.10;;;-1.80;99.90;;;;;;5048144;28;20036;-72
2022/12/19 02:25:54;;;;;;;77.22;33.88;;;-1.80;99.90;;;;;;5055352;28;20028;-72
2022/12/19 02:28:23;;;;;;;73.55;32.15;;;-1.80;99.90;;;;;;5061026;28;20035;-72
2022/12/19 02:31:20;;;;;;;74.85;33.85;;;-1.80;99.90;;;;;;5058308;28;20073;-72
2022/12/19 02:33:55;;;;;;;75.10;33.65;;;-1.80;99.90;;;;;;5057702;28;20032;-73
2022/12/19 02:36:30;;;;;;;70.22;32.13;;;-1.80;99.90;;;;;;5049762;28;20037;-73
2022/12/19 02:39:04;;;;;;;77.22;33.83;;;-1.80;99.90;;;;;;5061574;28;20107;-73
2022/12/19 02:41:52;;;;;;;71.45;32.80;;;-1.70;99.90;;;;;;5055229;28;20056;-73
2022/12/19 02:44:31;;;;;;;78.75;33.78;;;-1.70;99.90;;;;;;5054022;28;20037;-73
2022/12/19 02:46:59;;;;;;;74.97;33.08;;;-1.70;99.90;;;;;;5059174;28;20042;-73
2022/12/19 02:49:24;;;;;;;80.20;34.72;;;-1.70;99.90;;;;;;5056967;28;20063;-72
2022/12/19 02:51:50;;;;;;;78.70;33.17;;;-1.70;99.90;;;;;;5057173;28;20945;-73
2022/12/19 02:54:16;;;;;;;73.72;33.63;;;-1.70;99.90;;;;;;5052114;28;20039;-73
2022/12/19 02:56:56;;;;;;;78.32;34.00;;;-1.70;99.90;;;;;;5056792;28;20040;-73
2022/12/19 02:59:44;;;;;;;78.43;33.05;;;-1.70;99.90;;;;;;5056280;28;20032;-73
2022/12/19 03:02:50;;;;;;;74.75;33.75;;;-1.70;99.90;;;;;;5051744;28;20236;-73
2022/12/19 03:05:53;;;;;;;75.10;32.55;;;-1.70;99.90;;;;;;5057365;28;20698;-73
2022/12/19 03:08:47;;;;;;;76.68;33.08;;;-1.70;99.90;;;;;;5059601;28;20564;-73
2022/12/19 03:11:14;;;;;;;73.88;31.65;;;-1.70;99.90;;;;;;5047420;28;20850;-72
2022/12/19 03:14:06;;;;;;;72.95;32.08;;;-1.70;99.90;;;;;;5053079;28;20035;-72
2022/12/19 03:16:35;;;;;;;74.00;33.17;;;-1.70;99.90;;;;;;5055303;28;20898;-73
2022/12/19 03:19:01;;;;;;;70.90;31.27;;;-1.70;99.90;;;;;;5059435;28;20032;-73
2022/12/19 03:21:37;;;;;;;72.05;32.50;;;-1.60;99.90;;;;;;5063042;28;20040;-72
2022/12/19 03:24:04;;;;;;;71.75;32.20;;;-1.60;99.90;;;;;;5051434;28;20124;-72
2022/12/19 03:26:35;;;;;;;71.30;32.60;;;-1.60;99.90;;;;;;5058754;28;20031;-72
2022/12/19 03:29:09;;;;;;;70.38;32.97;;;-1.60;99.90;;;;;;5047671;28;20019;-73
2022/12/19 03:31:38;;;;;;;69.00;32.33;;;-1.60;99.90;;;;;;5051472;28;20032;-73
2022/12/19 03:34:27;;;;;;;74.85;32.78;;;-1.60;99.90;;;;;;5053123;28;20032;-73
2022/12/19 03:36:56;;;;;;;68.93;32.67;;;-1.60;99.90;;;;;;5054267;28;20490;-73
2022/12/19 03:39:24;;;;;;;67.30;31.83;;;-1.60;99.90;;;;;;5057423;28;20019;-73
2022/12/19 03:44:40;;;;;;;70.80;31.00;;;-1.60;99.90;;;;;;5051483;28;20597;-73
2022/12/19 03:47:13;;;;;;;73.93;34.13;;;-1.70;99.90;;;;;;5056301;28;20028;-73
2022/12/19 03:49:39;;;;;;;69.30;32.17;;;-1.60;99.90;;;;;;5052365;28;20031;-73
2022/12/19 03:52:19;;;;;;;73.55;33.25;;;-1.60;99.90;;;;;;5054180;28;20039;-73
2022/12/19 03:54:55;;;;;;;75.07;33.53;;;-1.60;99.90;;;;;;5055882;28;20031;-73
2022/12/19 03:57:55;;;;;;;68.55;31.23;;;-1.70;99.90;;;;;;5057516;28;20486;-73
2022/12/19 04:00:22;;;;;;;71.55;31.90;;;-1.60;99.90;;;;;;5045494;28;20118;-73
2022/12/19 04:02:51;;;;;;;70.80;32.88;;;-1.60;99.90;;;;;;5052530;28;20088;-73
2022/12/19 04:05:22;;;;;;;73.18;32.78;;;-1.60;99.90;;;;;;5052366;28;20047;-73
2022/12/19 04:07:51;;;;;;;72.82;33.05;;;-1.60;99.90;;;;;;5055430;28;20309;-73
2022/12/19 04:10:20;;;;;;;69.63;32.42;;;-1.60;99.90;;;;;;5058368;28;20498;-73
2022/12/19 04:13:12;;;;;;;74.95;34.25;;;-1.60;99.90;;;;;;5046747;28;20521;-73
2022/12/19 04:15:57;;;;;;;71.80;33.50;;;-1.60;99.90;;;;;;5057116;28;20036;-73
2022/12/19 04:18:24;;;;;;;76.30;34.28;;;-1.60;99.90;;;;;;5057711;28;20037;-73
2022/12/19 04:21:09;;;;;;;71.85;33.22;;;-1.60;99.90;;;;;;5056489;28;20029;-73
2022/12/19 04:23:49;;;;;;;71.03;31.67;;;-1.60;99.90;;;;;;5053290;28;22554;-73
2022/12/19 04:26:17;;;;;;;75.53;34.53;;;-1.60;99.90;;;;;;5056296;28;20028;-73
2022/12/19 04:28:50;;;;;;;72.85;33.33;;;-1.60;99.90;;;;;;5060376;28;20024;-73
2022/12/19 04:31:17;;;;;;;76.20;34.05;;;-1.60;99.90;;;;;;5055022;28;20020;-73
2022/12/19 04:33:42;;;;;;;74.65;34.20;;;-1.60;99.90;;;;;;5052261;28;20054;-72
2022/12/19 04:36:09;;;;;;;71.10;32.33;;;-1.60;99.90;;;;;;5052196;28;20040;-73
2022/12/19 04:38:34;;;;;;;74.00;33.10;;;-1.60;99.90;;;;;;5055800;28;20820;-73
2022/12/19 04:41:00;;;;;;;71.57;33.10;;;-1.60;99.90;;;;;;5058598;28;20513;-73
2022/12/19 04:43:26;;;;;;;77.32;34.28;;;-1.60;99.90;;;;;;5052058;28;20508;-74
2022/12/19 04:45:52;;;;;;;68.55;31.33;;;-1.60;99.90;;;;;;5055212;28;20136;-73
2022/12/19 04:48:17;;;;;;;78.10;35.20;;;-1.60;99.90;;;;;;5057447;28;20027;-73
2022/12/19 04:50:43;;;;;;;71.15;32.97;;;-1.60;99.90;;;;;;5055449;28;20028;-73
2022/12/19 04:53:09;;;;;;;79.80;36.25;;;-1.50;99.90;;;;;;5054263;28;20368;-73
2022/12/19 04:55:35;;;;;;;73.57;33.05;;;-1.50;99.90;;;;;;5055229;28;20047;-73
2022/12/19 04:58:02;;;;;;;81.22;34.47;;;-1.50;99.90;;;;;;5052742;28;20060;-73
2022/12/19 05:00:27;;;;;;;72.72;33.05;;;-1.50;99.90;;;;;;5059728;28;20068;-73
2022/12/19 05:02:53;;;;;;;71.68;33.72;;;-1.50;99.90;;;;;;5053123;28;20523;-73
2022/12/19 05:05:19;;;;;;;75.10;34.75;;;-1.50;99.90;;;;;;5054710;28;20371;-73
2022/12/19 05:07:45;;;;;;;72.30;33.92;;;-1.40;99.90;;;;;;5060659;28;20025;-73
2022/12/19 05:10:11;;;;;;;78.15;34.58;;;-1.40;99.90;;;;;;5057523;28;20127;-73
2022/12/19 05:12:37;;;;;;;74.82;33.60;;;-1.30;99.90;;;;;;5054411;28;20028;-73
2022/12/19 05:15:03;;;;;;;75.47;34.75;;;-1.30;99.90;;;;;;5055045;28;20526;-73
2022/12/19 05:17:29;;;;;;;80.22;36.63;;;-1.30;99.90;;;;;;5051724;28;20028;-74
2022/12/19 05:19:55;;;;;;;78.80;35.85;;;-1.20;99.90;;;;;;5058312;28;20096;-73
2022/12/19 05:22:20;;;;;;;82.15;36.65;;;-1.20;99.90;;;;;;5053177;28;20482;-73
2022/12/19 05:24:46;;;;;;;80.72;35.70;;;-1.20;99.90;;;;;;5054161;28;20040;-73
2022/12/19 05:27:11;;;;;;;83.88;36.85;;;-1.10;99.90;;;;;;5056354;28;20043;-74
2022/12/19 05:29:37;;;;;;;79.30;35.70;;;-1.10;99.90;;;;;;5055424;28;20077;-73
2022/12/19 05:32:03;;;;;;;83.05;37.03;;;-1.10;99.90;;;;;;5055246;28;20035;-73
2022/12/19 05:34:28;;;;;;;81.35;38.00;;;-1.00;99.90;;;;;;5053333;28;20722;-74
2022/12/19 05:36:54;;;;;;;76.40;36.03;;;-1.00;99.90;;;;;;5057040;28;22065;-74
2022/12/19 05:39:20;;;;;;;85.38;37.30;;;-1.00;99.90;;;;;;5054972;28;20038;-74
2022/12/19 05:41:45;;;;;;;82.90;38.10;;;-0.90;99.90;;;;;;5057076;28;20032;-74
2022/12/19 05:44:11;;;;;;;85.78;38.60;;;-0.90;99.90;;;;;;5055308;28;20043;-74
2022/12/19 05:46:36;;;;;;;79.13;37.95;;;-0.90;99.90;;;;;;5057308;28;20031;-75
2022/12/19 05:49:02;;;;;;;78.95;36.78;;;-0.90;99.90;;;;;;5058153;28;20028;-75
2022/12/19 05:51:28;;;;;;;83.72;37.13;;;-0.90;99.90;;;;;;5059617;28;20144;-75
2022/12/19 05:53:53;;;;;;;78.65;36.15;;;-0.80;99.90;;;;;;5056225;28;20032;-75
2022/12/19 05:56:21;;;;;;;76.13;34.45;;;-0.80;99.90;;;;;;5058946;28;20676;-76
2022/12/19 05:58:47;;;;;;;85.85;36.17;;;-0.90;99.90;;;;;;5065016;28;20032;-75
2022/12/19 06:01:22;;;;;;;83.85;37.20;;;-0.80;99.90;;;;;;5060486;28;20039;-76
2022/12/19 06:03:49;;;;;;;79.00;35.90;;;-0.80;99.90;;;;;;5062171;28;20506;-76
2022/12/19 06:06:17;;;;;;;82.35;37.20;;;-0.70;99.90;;;;;;5066166;28;20505;-77
2022/12/19 06:08:43;;;;;;;87.10;37.30;;;-0.70;99.90;;;;;;5066254;28;20051;-76
2022/12/19 06:11:10;;;;;;;82.78;38.15;;;-0.70;99.90;;;;;;5059928;28;20020;-77
2022/12/19 06:13:36;;;;;;;82.43;37.67;;;-0.70;99.90;;;;;;5054179;28;20229;-77
2022/12/19 06:16:09;;;;;;;86.22;38.17;;;-0.70;99.90;;;;;;5061042;28;20024;-77
2022/12/19 06:18:35;;;;;;;68.07;29.17;;;-0.60;99.90;;;;;;5058256;28;20122;-77
2022/12/19 06:21:11;;;;;;;87.45;38.30;;;-0.60;99.90;;;;;;5061752;28;20034;-77
2022/12/19 06:23:37;;;;;;;86.30;36.60;;;-0.60;99.90;;;;;;5063472;28;20032;-78
2022/12/19 06:26:05;;;;;;;90.88;41.60;;;-0.60;99.90;;;;;;5059358;28;20120;-77
2022/12/19 06:28:32;;;;;;;87.97;39.30;;;-0.60;99.90;;;;;;5061889;28;20123;-78
2022/12/19 06:31:00;;;;;;;91.93;39.75;;;-0.60;99.90;;;;;;5056861;28;20043;-77
2022/12/19 06:33:26;;;;;;;90.35;39.08;;;-0.60;99.90;;;;;;5054479;28;20333;-77
2022/12/19 06:36:22;;;;;;;87.43;39.63;;;-0.60;99.90;;;;;;5063801;28;20060;-78
2022/12/19 06:38:49;;;;;;;90.85;40.80;;;-0.50;99.90;;;;;;5063681;28;20048;-77
2022/12/19 06:44:01;;;;;;;83.90;39.63;;;-0.50;99.90;;;;;;5079834;28;20378;-77
2022/12/19 06:46:28;;;;;;;85.53;39.35;;;-0.50;99.90;;;;;;5083323;28;20032;-77
2022/12/19 06:48:54;;;;;;;88.70;40.13;;;-0.50;99.90;;;;;;5076741;28;20708;-77
2022/12/19 06:51:20;;;;;;;88.88;38.92;;;-0.50;99.90;;;;;;5082237;28;20103;-77
2022/12/19 06:53:46;;;;;;;91.40;39.00;;;-0.50;99.90;;;;;;5078485;28;20060;-77
2022/12/19 06:56:14;;;;;;;90.25;39.20;;;-0.50;99.90;;;;;;5072477;28;20123;-77
2022/12/19 06:58:39;;;;;;;82.60;38.80;;;-0.50;99.90;;;;;;5084094;28;20035;-77
2022/12/19 07:01:05;;;;;;;91.47;39.15;;;-0.50;99.90;;;;;;5081488;28;20398;-77
2022/12/19 07:03:40;;;;;;;82.50;37.67;;;-0.50;99.90;;;;;;5081270;28;20347;-77
2022/12/19 07:06:06;;;;;;;84.07;36.22;;;-0.50;99.90;;;;;;5082786;28;20043;-77
2022/12/19 07:08:32;;;;;;;86.57;37.20;;;-0.50;99.90;;;;;;5082571;28;20364;-77
2022/12/19 07:10:58;;;;;;;87.70;39.78;;;-0.50;99.90;;;;;;5085545;28;20047;-76
2022/12/19 07:13:24;;;;;;;86.80;38.35;;;-0.50;99.90;;;;;;5079556;28;20032;-76
2022/12/19 07:15:51;;;;;;;84.50;38.17;;;-0.40;99.90;;;;;;5080167;28;20036;-75
2022/12/19 07:18:17;;;;;;;80.10;37.40;;;-0.50;99.90;;;;;;5080127;28;20938;-73
2022/12/19 07:20:44;;;;;;;83.05;37.75;;;-0.40;99.90;;;;;;5080694;28;20020;-73
2022/12/19 07:23:15;;;;;;;85.72;38.88;;;-0.40;99.90;;;;;;5076064;28;20028;-73
2022/12/19 07:25:41;;;;;;;85.53;38.17;;;-0.40;99.90;;;;;;5085293;28;20028;-73
2022/12/19 07:28:08;;;;;;;79.78;35.78;;;-0.40;99.90;;;;;;5083260;28;20147;-72
2022/12/19 07:30:34;;;;;;;90.18;39.13;;;-0.40;99.90;;;;;;5085627;28;20020;-72
2022/12/19 07:32:59;;;;;;;82.45;37.75;;;-0.40;99.90;;;;;;5082376;28;20034;-72
2022/12/19 07:35:25;;;;;;;91.78;39.70;;;-0.40;99.90;;;;;;5081960;28;20028;-71
2022/12/19 07:37:51;;;;;;;89.65;38.85;;;-0.30;99.90;;;;;;5072089;28;20020;-71
2022/12/19 07:40:17;;;;;;;85.07;38.72;;;-0.40;99.90;;;;;;5081134;28;20032;-71
2022/12/19 07:42:43;;;;;;;92.15;41.17;;;-0.30;99.90;;;;;;5077637;28;20024;-71
2022/12/19 07:45:09;;;;;;;87.28;39.20;;;-0.30;99.90;;;;;;5080756;28;20156;-71
2022/12/19 07:47:35;;;;;;;92.45;40.20;;;-0.30;99.90;;;;;;5079207;28;20036;-71
2022/12/19 07:50:01;;;;;;;89.55;39.53;;;-0.30;99.90;;;;;;5080627;28;20155;-71
2022/12/19 07:52:27;;;;;;;90.95;39.80;;;-0.30;99.90;;;;;;5081091;28;20032;-72
2022/12/19 07:54:52;;;;;;;95.00;41.95;;;-0.30;99.90;;;;;;5085028;28;20147;-71
2022/12/19 07:57:18;;;;;;;92.20;40.45;;;-0.30;99.90;;;;;;5079912;28;20078;-72
2022/12/19 07:59:45;;;;;;;92.32;41.35;;;-0.30;99.90;;;;;;5084410;28;20047;-72
2022/12/19 08:02:11;;;;;;;95.82;41.05;;;-0.30;99.90;;;;;;5066891;28;20161;-71
2022/12/19 08:04:36;;;;;;;119.45;48.83;;;-0.30;99.90;;;;;;5076919;28;20433;-71
2022/12/19 08:07:02;;;;;;;101.70;44.13;;;-0.20;99.90;;;;;;5077625;28;20098;-71
2022/12/19 08:09:28;;;;;;;97.45;42.35;;;-0.30;99.90;;;;;;5079532;28;20035;-71
2022/12/19 08:11:54;;;;;;;96.68;43.00;;;-0.30;99.90;;;;;;5082451;28;20036;-71
2022/12/19 08:14:20;;;;;;;98.30;43.30;;;-0.20;99.90;;;;;;5078275;28;20078;-73
2022/12/19 08:16:46;;;;;;;95.53;39.67;;;-0.20;99.90;;;;;;5074993;28;20507;-72
2022/12/19 08:19:11;;;;;;;94.25;41.13;;;-0.20;99.90;;;;;;5075065;28;20123;-72
2022/12/19 08:21:37;;;;;;;84.53;39.90;;;-0.20;99.90;;;;;;5084481;28;20040;-72
2022/12/19 08:24:03;;;;;;;88.10;39.08;;;-0.10;99.90;;;;;;5080405;28;20034;-72
2022/12/19 08:26:29;;;;;;;87.70;39.80;;;-0.10;99.90;;;;;;5082739;28;20530;-72
2022/12/19 08:28:56;;;;;;;95.13;40.45;;;-0.10;99.90;;;;;;5076202;28;20032;-71
2022/12/19 08:31:25;;;;;;;91.28;39.90;;;-0.10;99.90;;;;;;5084240;28;20401;-72
2022/12/19 08:33:52;;;;;;;86.10;38.00;;;-0.10;99.90;;;;;;5082832;28;20183;-72
2022/12/19 08:36:19;;;;;;;88.82;41.08;;;-0.10;99.90;;;;;;5081695;28;20504;-72
2022/12/19 08:38:45;;;;;;;111.82;43.88;;;-0.10;99.90;;;;;;5090738;28;20044;-74
2022/12/19 08:41:11;;;;;;;104.95;42.42;;;-0.10;99.90;;;;;;5084365;28;20043;-72
2022/12/19 08:43:37;;;;;;;116.07;44.33;;;0.00;99.90;;;;;;5077910;28;20035;-72
2022/12/19 08:46:03;;;;;;;102.75;41.53;;;0.00;99.90;;;;;;5071703;28;20531;-72
2022/12/19 08:48:30;;;;;;;99.32;41.08;;;0.00;99.90;;;;;;5076058;28;20075;-71
2022/12/19 08:51:01;;;;;;;102.35;41.65;;;0.00;99.90;;;;;;5083701;28;20127;-72
2022/12/19 08:53:28;;;;;;;104.13;42.67;;;0.00;99.90;;;;;;5081685;28;20035;-73
2022/12/19 08:55:56;;;;;;;105.13;42.25;;;0.10;99.90;;;;;;5079848;28;20485;-73
2022/12/19 08:58:23;;;;;;;101.13;42.13;;;0.10;99.90;;;;;;5080346;28;20478;-72
2022/12/19 09:00:49;;;;;;;104.32;41.95;;;0.10;99.90;;;;;;5079429;28;20486;-72
2022/12/19 09:03:15;;;;;;;103.00;41.45;;;0.10;99.90;;;;;;5076193;28;20039;-72
2022/12/19 09:05:40;;;;;;;94.80;41.20;;;0.20;99.90;;;;;;5078918;28;20043;-72
2022/12/19 09:08:06;;;;;;;99.20;40.88;;;0.20;99.90;;;;;;5081729;28;20032;-72
2022/12/19 09:10:36;;;;;;;97.38;41.42;;;0.20;99.90;;;;;;5079147;28;20028;-71
2022/12/19 09:13:02;;;;;;;93.78;39.90;;;0.20;99.90;;;;;;5084705;28;20458;-73
2022/12/19 09:15:29;;;;;;;93.45;41.08;;;0.30;99.90;;;;;;5075636;28;20059;-71
2022/12/19 09:17:54;;;;;;;85.25;38.53;;;0.20;99.90;;;;;;5079898;28;20416;-71
2022/12/19 09:20:20;;;;;;;91.95;40.92;;;0.30;99.90;;;;;;5077173;28;20063;-72
2022/12/19 09:22:46;;;;;;;87.45;39.20;;;0.30;99.90;;;;;;5076838;28;20086;-71
2022/12/19 09:25:12;;;;;;;80.97;37.45;;;0.40;99.90;;;;;;5066552;28;20063;-71
2022/12/19 09:27:38;;;;;;;82.13;38.53;;;0.40;99.90;;;;;;5080195;28;20024;-72
2022/12/19 09:30:04;;;;;;;80.40;38.03;;;0.40;99.90;;;;;;5081873;28;20137;-71
2022/12/19 09:32:29;;;;;;;82.90;38.10;;;0.40;99.90;;;;;;5075197;28;20024;-72
2022/12/19 09:34:55;;;;;;;76.28;35.65;;;0.50;99.90;;;;;;5079824;28;20040;-72
2022/12/19 09:37:21;;;;;;;84.13;37.55;;;0.50;99.90;;;;;;5073632;28;20401;-72
2022/12/19 09:39:47;;;;;;;79.45;36.72;;;0.50;99.90;;;;;;5078005;28;20252;-73
2022/12/19 09:42:37;;;;;;;79.60;37.13;;;0.60;99.90;;;;;;5074742;28;20432;-73
2022/12/19 09:45:16;;;;;;;80.65;35.38;;;0.60;99.90;;;;;;5078837;28;20043;-73
2022/12/19 09:47:43;;;;;;;79.20;35.88;;;0.60;99.90;;;;;;5078688;28;20031;-72
2022/12/19 09:50:43;;;;;;;77.10;35.05;;;0.60;99.90;;;;;;5078351;28;20115;-73
2022/12/19 09:53:37;;;;;;;78.25;35.28;;;0.70;99.90;;;;;;5072041;28;20055;-73
2022/12/19 09:56:05;;;;;;;80.05;36.28;;;0.70;99.90;;;;;;5069490;28;20054;-72
2022/12/19 09:58:38;;;;;;;76.15;35.15;;;0.70;99.90;;;;;;5079497;28;20169;-72
2022/12/19 10:01:10;;;;;;;71.47;34.55;;;0.70;99.90;;;;;;5082007;28;20710;-74
2022/12/19 10:03:42;;;;;;;74.63;35.22;;;0.80;99.90;;;;;;5082770;28;20062;-74
2022/12/19 10:06:22;;;;;;;72.05;34.38;;;0.80;99.90;;;;;;5074772;28;20132;-73
2022/12/19 10:08:49;;;;;;;71.25;34.28;;;0.80;99.90;;;;;;5078097;28;20047;-72
2022/12/19 10:11:15;;;;;;;76.40;35.33;;;0.80;99.90;;;;;;5078215;28;20239;-72
2022/12/19 10:14:08;;;;;;;72.50;33.80;;;0.90;99.90;;;;;;5073145;28;20024;-73
2022/12/19 10:17:00;;;;;;;;;;;0.90;99.90;;;;;;5073685;28;20031;-73
2022/12/19 10:19:43;;;;;;;69.00;31.92;;;0.90;99.90;;;;;;5072939;28;19912;-72
2022/12/19 10:22:17;;;;;;;75.80;35.42;;;0.90;99.90;;;;;;5079891;28;20035;-74
2022/12/19 10:25:10;;;;;;;79.05;35.17;;;0.90;99.90;;;;;;5066917;28;20131;-72
2022/12/19 10:27:43;;;;;;;71.22;35.25;;;0.90;99.90;;;;;;5043005;28;20036;-72
2022/12/19 10:30:16;;;;;;;;;;;0.90;99.90;;;;;;5071888;28;20024;-72
2022/12/19 10:32:56;;;;;;;69.10;31.77;;;0.90;99.90;;;;;;5067912;28;20434;-73
2022/12/19 10:35:24;;;;;;;75.03;33.03;;;0.90;99.90;;;;;;5069930;28;20032;-73
2022/12/19 10:38:03;;;;;;;77.78;34.63;;;1.00;99.90;;;;;;5056228;28;20296;-73
2022/12/19 10:40:37;;;;;;;72.28;34.72;;;1.00;99.90;;;;;;4350987;28;10000712;-72
2022/12/19 10:43:12;;;;;;;74.82;34.65;;;1.00;99.90;;;;;;5066406;28;20044;-73
2022/12/19 10:45:44;;;;;;;75.72;34.30;;;1.00;99.90;;;;;;5068708;28;20102;-73
2022/12/19 10:48:19;;;;;;;72.18;34.67;;;1.00;99.90;;;;;;5053824;28;20029;-73
2022/12/19 10:50:46;;;;;;;69.57;33.88;;;1.00;99.90;;;;;;5056955;28;20392;-73
2022/12/19 10:53:13;;;;;;;75.00;35.13;;;1.00;99.90;;;;;;5049746;28;20123;-72
2022/12/19 10:55:53;;;;;;;75.30;35.58;;;1.00;99.90;;;;;;5069787;28;20335;-72
2022/12/19 10:58:31;;;;;;;81.70;35.95;;;1.00;99.90;;;;;;5057765;28;20028;-73
2022/12/19 11:01:12;;;;;;;74.65;34.95;;;1.00;99.90;;;;;;5056816;28;20024;-73
2022/12/19 11:03:40;;;;;;;77.20;35.70;;;1.00;99.90;;;;;;5048499;28;20477;-72
2022/12/19 11:06:32;;;;;;;79.15;37.20;;;0.90;99.90;;;;;;5044605;28;20052;-72
2022/12/19 11:09:26;;;;;;;77.10;35.13;;;1.00;99.90;;;;;;5024771;28;20035;-73
2022/12/19 11:12:17;;;;;;;79.55;35.85;;;1.00;99.90;;;;;;5033341;28;20727;-73
2022/12/19 11:15:02;;;;;;;76.05;35.30;;;1.00;99.90;;;;;;5013661;28;20072;-74
2022/12/19 11:17:30;;;;;;;82.00;36.28;;;1.00;99.90;;;;;;5028803;28;20040;-74
2022/12/19 11:19:57;;;;;;;75.55;36.45;;;1.00;99.90;;;;;;5036755;28;20556;-74
2022/12/19 11:22:29;;;;;;;76.97;35.28;;;1.00;99.90;;;;;;5025657;28;22724;-74
2022/12/19 11:24:56;;;;;;;78.68;37.25;;;1.10;99.90;;;;;;5034022;28;20033;-74
2022/12/19 11:27:36;;;;;;;73.13;34.88;;;1.00;99.90;;;;;;5034042;28;20512;-73
2022/12/19 11:30:20;;;;;;;73.78;35.17;;;1.00;99.90;;;;;;5030711;28;20588;-72
2022/12/19 11:32:48;;;;;;;73.90;33.28;;;1.10;99.90;;;;;;5034619;28;20565;-73
2022/12/19 11:35:23;;;;;;;74.20;35.53;;;1.10;99.90;;;;;;5031571;28;20145;-73
2022/12/19 11:37:53;;;;;;;78.35;36.78;;;1.10;99.90;;;;;;5035309;28;20101;-73
2022/12/19 11:40:44;;;;;;;79.28;35.72;;;1.10;99.90;;;;;;5029750;28;20024;-74
2022/12/19 11:44:04;;;;;;;68.80;34.00;;;1.10;99.90;;;;;;5031185;28;20047;-73
2022/12/19 11:46:39;;;;;;;74.13;34.08;;;1.10;99.90;;;;;;4972330;28;22412;-72
2022/12/19 11:49:25;;;;;;;74.97;35.13;;;1.10;99.90;;;;;;5027274;28;20032;-73
2022/12/19 11:52:01;;;;;;;75.40;34.53;;;1.10;99.90;;;;;;5030454;28;20040;-73
2022/12/19 11:54:54;;;;;;;78.00;36.38;;;1.10;99.90;;;;;;5033460;28;20521;-74
2022/12/19 11:57:19;;;;;;;74.22;34.72;;;1.20;99.90;;;;;;5056160;28;20360;-73
2022/12/19 11:59:45;;;;;;;77.50;35.97;;;1.60;99.90;;;;;;5040902;28;20024;-74
2022/12/19 12:02:26;;;;;;;73.50;35.00;;;1.20;99.90;;;;;;5041377;28;20115;-74
2022/12/19 12:05:07;;;;;;;74.65;34.72;;;1.20;99.90;;;;;;5031200;28;20761;-77
2022/12/19 12:07:38;;;;;;;73.18;35.10;;;1.20;99.90;;;;;;5031834;28;20036;-76
2022/12/19 12:10:18;;;;;;;75.13;34.17;;;1.20;99.90;;;;;;5026582;28;20066;-76
2022/12/19 12:13:13;;;;;;;75.57;34.50;;;1.20;99.90;;;;;;5022182;28;20651;-76
2022/12/19 12:15:54;;;;;;;71.85;33.53;;;1.20;99.90;;;;;;5021504;28;20390;-75
2022/12/19 12:18:32;;;;;;;71.57;34.03;;;1.20;99.90;;;;;;5023296;28;20038;-78
2022/12/19 12:21:27;;;;;;;76.22;34.33;;;1.20;99.90;;;;;;5025407;28;20031;-76
2022/12/19 12:24:19;;;;;;;81.20;35.90;;;1.30;99.90;;;;;;5021715;28;20499;-76
2022/12/19 12:26:53;;;;;;;64.28;28.00;;;;;;;;;;5024020;28;20036;-75
2022/12/19 12:29:32;;;;;;;70.38;34.03;;;1.30;99.90;;;;;;5029301;28;20058;-75
2022/12/19 12:32:35;;;;;;;71.70;33.50;;;1.30;99.90;;;;;;5021796;28;20418;-74
2022/12/19 12:35:40;;;;;;;70.07;32.85;;;1.30;99.90;;;;;;5023887;28;20477;-73
2022/12/19 12:38:12;;;;;;;67.57;32.53;;;1.40;99.90;;;;;;5028606;28;20107;-74
2022/12/19 12:40:56;;;;;;;66.18;31.38;;;1.40;99.90;;;;;;5038260;28;20111;-73
2022/12/19 12:44:07;;;;;;;68.25;33.10;;;1.40;99.90;;;;;;5046451;28;20044;-73
2022/12/19 12:47:01;;;;;;;65.28;31.08;;;1.40;99.90;;;;;;5037046;28;20205;-73
2022/12/19 12:49:47;;;;;;;60.33;30.88;;;1.40;99.90;;;;;;5044354;28;20562;-76
2022/12/19 12:52:34;;;;;;;61.63;31.08;;;1.50;99.90;;;;;;5038143;28;20040;-74
2022/12/19 12:55:01;;;;;;;67.05;31.80;;;1.50;99.90;;;;;;5051701;28;20032;-74
2022/12/19 12:57:27;;;;;;;65.53;31.02;;;1.50;99.90;;;;;;5046393;28;20545;-74
2022/12/19 13:00:16;;;;;;;68.55;32.92;;;1.50;99.90;;;;;;5048107;28;20048;-76
2022/12/19 13:02:48;;;;;;;65.70;31.17;;;1.50;99.90;;;;;;5048464;28;20072;-77